Terminal Aerodrome Forecast
Issued by NWS Lake Charles, LA

Home | Current Version | Previous Version | Text Only | Print | Product List | Glossary On
Versions: 1 2 3 4 5 6 7 8 9 10 11 12
364
FTUS44 KLCH 120523
TAFAEX
TAF
KAEX 120523Z 1206/1306 22005KT P6SM SKC
     FM120900 21003KT 5SM BR SCT015
      TEMPO 1211/1214 1SM BR BKN003
     FM121500 26008KT P6SM SCT025
     FM122000 33008KT P6SM SCT250
     FM130100 01005KT P6SM SKC=

USA.gov is the U.S. government's official web portal to all federal, state and local government web resources and services.